HRHO2: North Canadian River

                                SHEF ID:       HRHO2     North Canadian River near Harrah
STATION TYPE:
Regulating: Stage = 15.00, Flow = 8563

STAGE RIV-FLOW WTR-TEMP DIS-OXY PH CONDUCT BAT-LOAD
ft cfs F mg/l su umho/cm volt
Ccp-Rev Ccp-Rev Ccp-Rev Ccp-Rev Ccp-Rev Ccp-Rev Ccp-Rev
(America/Chicago)
02/26 00:00 3.48 167 58.12 8.24 8.43 1189 11.77
02/26 01:00 3.49 168 57.58 7.97 8.39 1188 11.81
02/26 02:00 3.49 168 57.04 7.86 8.37 1209 11.79
02/26 03:00 3.50 170 56.48 7.79 8.33 1209 11.76
02/26 04:00 3.50 170 55.98 7.82 8.31 1222 11.77
02/26 05:00 3.51 172 55.42 7.80 8.26 1209 11.81
02/26 06:00 3.51 172 54.88 7.90 8.22 1212 11.82
02/26 07:00 3.51 172 54.48 8.03 8.18 1191 11.83
02/26 08:00 3.51 172 54.54 8.83 8.23 1197 11.85
02/26 09:00 3.51 172 55.35 9.76 8.29 1185 12.01
02/26 10:00 3.51 172 56.86 10.49 8.39 1201 12.63
02/26 11:00 3.51 172 58.73 11.12 8.45 1188 12.82
02/26 12:00 3.50 170 60.75 11.59 8.52 1209 12.97
02/26 13:00 3.50 170 62.62 11.95 8.57 1181 13.00
02/26 14:00 3.50 170 64.08 12.09 8.64 1202 13.00
02/26 15:00 3.50 170 65.01 12.29 8.69 1144 12.99
02/26 16:00 3.49 168 65.14 12.34 8.75 1174 12.92
02/26 17:00 3.49 168 64.54 12.11 8.77 1156 12.72
02/26 18:00 3.49 168 63.64 11.28 8.76 1177 12.62
02/26 19:00 3.48 167 62.65 10.36 8.73 1130 12.34
02/26 20:00 3.48 167 61.74 9.54 8.68 1164 12.16
02/26 21:00 3.48 167 61.02 8.94 8.64 1125 12.04
02/26 22:00 3.48 167 60.24 8.47 8.60 1167 12.01
02/26 23:00 3.48 167 59.85 8.22 8.57 1129 12.04
Data processed at Fri 27Feb2026 05:25 GMT

NOTICE: If you are parsing this page

Please convert to using our Data API. Starting early 2026 we will be migrating to: https://water.usace.army.mil with modern pages rendered in JavaScript. When this migration completes you will no longer be able to scrape this page! CWMSDataAPI (CDA)

Timeseries IDs (TSIDs)

TSIDs used from left to right in the data table
HARR.Stage.Inst.1Hour.0.Ccp-Rev
HARR.Flow.Inst.1Hour.0.Ccp-Rev
HARR.Temp-Water.Inst.1Hour.0.Ccp-Rev
HARR.Conc-DO.Inst.1Hour.0.Ccp-Rev
HARR.pH.Inst.1Hour.0.Ccp-Rev
HARR.Cond-Water.Inst.1Hour.0.Ccp-Rev
HARR.Volt-Battery Load.Inst.1Hour.0.Ccp-Rev

                            

All information presented herein is the property of the government of the United States of America and may be revised or deleted at any time without prior notice. Dissemination of this information without the expressed written consent of the Public Affairs Office, Tulsa District U.S. Army Corps of Engineers is strictly prohibited. These data are gathered electronically and, as presented, have NOT undergone any form of quality control. These data are NOT guaranteed to be valid or correct.